sensor_id;sensor_type;location;lat;lon;timestamp;temperature;humidity
15239;DHT22;7722;53.274;9.500;2023-02-28T00:00:26;2.20;99.90
15239;DHT22;7722;53.274;9.500;2023-02-28T00:02:54;2.20;99.90
15239;DHT22;7722;53.274;9.500;2023-02-28T00:05:22;2.20;99.90
15239;DHT22;7722;53.274;9.500;2023-02-28T00:07:50;2.20;99.90
15239;DHT22;7722;53.274;9.500;2023-02-28T00:10:18;2.20;99.90
15239;DHT22;7722;53.274;9.500;2023-02-28T00:12:48;2.20;99.90
15239;DHT22;7722;53.274;9.500;2023-02-28T00:15:15;2.20;99.90
15239;DHT22;7722;53.274;9.500;2023-02-28T00:17:43;2.20;99.90
15239;DHT22;7722;53.274;9.500;2023-02-28T00:20:11;2.20;99.90
15239;DHT22;7722;53.274;9.500;2023-02-28T00:22:40;2.10;99.90
15239;DHT22;7722;53.274;9.500;2023-02-28T00:25:08;2.10;99.90
15239;DHT22;7722;53.274;9.500;2023-02-28T00:27:36;2.00;99.90
15239;DHT22;7722;53.274;9.500;2023-02-28T00:30:08;1.90;99.90
15239;DHT22;7722;53.274;9.500;2023-02-28T00:32:35;1.90;99.90
15239;DHT22;7722;53.274;9.500;2023-02-28T00:35:03;1.80;99.90
15239;DHT22;7722;53.274;9.500;2023-02-28T00:37:30;1.80;99.90
15239;DHT22;7722;53.274;9.500;2023-02-28T00:39:57;1.80;99.90
15239;DHT22;7722;53.274;9.500;2023-02-28T00:42:24;1.70;99.90
15239;DHT22;7722;53.274;9.500;2023-02-28T00:44:51;1.70;99.90
15239;DHT22;7722;53.274;9.500;2023-02-28T00:47:20;1.60;99.90
15239;DHT22;7722;53.274;9.500;2023-02-28T00:49:47;1.60;99.90
15239;DHT22;7722;53.274;9.500;2023-02-28T00:52:14;1.50;99.90
15239;DHT22;7722;53.274;9.500;2023-02-28T00:54:41;1.40;99.90
15239;DHT22;7722;53.274;9.500;2023-02-28T00:57:08;1.40;99.90
15239;DHT22;7722;53.274;9.500;2023-02-28T00:59:35;1.40;99.90
15239;DHT22;7722;53.274;9.500;2023-02-28T01:02:02;1.30;99.90
15239;DHT22;7722;53.274;9.500;2023-02-28T01:04:31;1.20;99.90
15239;DHT22;7722;53.274;9.500;2023-02-28T01:06:58;1.20;99.90
15239;DHT22;7722;53.274;9.500;2023-02-28T01:09:25;1.10;99.90
15239;DHT22;7722;53.274;9.500;2023-02-28T01:11:52;1.10;99.90
15239;DHT22;7722;53.274;9.500;2023-02-28T01:14:19;1.00;99.90
15239;DHT22;7722;53.274;9.500;2023-02-28T01:16:46;1.00;99.90
15239;DHT22;7722;53.274;9.500;2023-02-28T01:19:13;1.00;99.90
15239;DHT22;7722;53.274;9.500;2023-02-28T01:21:42;0.90;99.90
15239;DHT22;7722;53.274;9.500;2023-02-28T01:24:09;0.90;99.90
15239;DHT22;7722;53.274;9.500;2023-02-28T01:26:35;0.90;99.90
15239;DHT22;7722;53.274;9.500;2023-02-28T01:29:02;0.80;99.90
15239;DHT22;7722;53.274;9.500;2023-02-28T01:31:29;0.80;99.90
15239;DHT22;7722;53.274;9.500;2023-02-28T01:33:56;0.80;99.90
15239;DHT22;7722;53.274;9.500;2023-02-28T01:36:24;0.70;99.90
15239;DHT22;7722;53.274;9.500;2023-02-28T01:38:53;0.60;99.90
15239;DHT22;7722;53.274;9.500;2023-02-28T01:41:22;0.50;99.90
15239;DHT22;7722;53.274;9.500;2023-02-28T01:44:01;0.50;99.90
15239;DHT22;7722;53.274;9.500;2023-02-28T01:46:32;0.40;99.90
15239;DHT22;7722;53.274;9.500;2023-02-28T01:49:06;0.30;99.90
15239;DHT22;7722;53.274;9.500;2023-02-28T01:51:38;0.30;99.90
15239;DHT22;7722;53.274;9.500;2023-02-28T01:54:15;0.20;99.90
15239;DHT22;7722;53.274;9.500;2023-02-28T01:56:47;0.30;99.90
15239;DHT22;7722;53.274;9.500;2023-02-28T01:59:21;0.30;99.90
15239;DHT22;7722;53.274;9.500;2023-02-28T02:01:48;0.30;99.90
15239;DHT22;7722;53.274;9.500;2023-02-28T02:04:16;0.20;99.90
15239;DHT22;7722;53.274;9.500;2023-02-28T02:06:44;0.10;99.90
15239;DHT22;7722;53.274;9.500;2023-02-28T02:09:13;0.20;99.90
15239;DHT22;7722;53.274;9.500;2023-02-28T02:11:42;0.10;99.90
15239;DHT22;7722;53.274;9.500;2023-02-28T02:14:38;0.00;99.90
15239;DHT22;7722;53.274;9.500;2023-02-28T02:17:20;-0.10;99.90
15239;DHT22;7722;53.274;9.500;2023-02-28T02:23:27;-0.40;99.90
15239;DHT22;7722;53.274;9.500;2023-02-28T02:26:08;-0.60;99.90
15239;DHT22;7722;53.274;9.500;2023-02-28T02:31:57;-0.80;99.90
15239;DHT22;7722;53.274;9.500;2023-02-28T02:34:41;-0.90;99.90
15239;DHT22;7722;53.274;9.500;2023-02-28T02:37:15;-1.00;99.90
15239;DHT22;7722;53.274;9.500;2023-02-28T02:39:50;-1.00;99.90
15239;DHT22;7722;53.274;9.500;2023-02-28T02:42:23;-1.00;99.90
15239;DHT22;7722;53.274;9.500;2023-02-28T02:44:57;-1.00;99.90
15239;DHT22;7722;53.274;9.500;2023-02-28T02:47:27;-1.00;99.90
15239;DHT22;7722;53.274;9.500;2023-02-28T02:49:59;-1.00;99.90
15239;DHT22;7722;53.274;9.500;2023-02-28T02:52:31;-1.10;99.90
15239;DHT22;7722;53.274;9.500;2023-02-28T02:55:02;-1.20;99.90
15239;DHT22;7722;53.274;9.500;2023-02-28T02:57:32;-1.20;99.90
15239;DHT22;7722;53.274;9.500;2023-02-28T03:00:02;-1.30;99.90
15239;DHT22;7722;53.274;9.500;2023-02-28T03:02:32;-1.30;99.90
15239;DHT22;7722;53.274;9.500;2023-02-28T03:05:04;-1.20;99.90
15239;DHT22;7722;53.274;9.500;2023-02-28T03:07:32;-1.20;99.90
15239;DHT22;7722;53.274;9.500;2023-02-28T03:09:59;-1.20;99.90
15239;DHT22;7722;53.274;9.500;2023-02-28T03:12:32;-1.20;99.90
15239;DHT22;7722;53.274;9.500;2023-02-28T03:15:08;-1.20;99.90
15239;DHT22;7722;53.274;9.500;2023-02-28T03:17:50;-1.20;99.90
15239;DHT22;7722;53.274;9.500;2023-02-28T03:20:31;-1.30;99.90
15239;DHT22;7722;53.274;9.500;2023-02-28T03:23:07;-1.40;99.90
15239;DHT22;7722;53.274;9.500;2023-02-28T03:25:43;-1.40;99.90
15239;DHT22;7722;53.274;9.500;2023-02-28T03:28:15;-1.50;99.90
15239;DHT22;7722;53.274;9.500;2023-02-28T03:30:48;-1.50;99.90
15239;DHT22;7722;53.274;9.500;2023-02-28T03:33:22;-1.50;99.90
15239;DHT22;7722;53.274;9.500;2023-02-28T03:35:54;-1.60;99.90
15239;DHT22;7722;53.274;9.500;2023-02-28T03:38:26;-1.60;99.90
15239;DHT22;7722;53.274;9.500;2023-02-28T03:40:58;-1.70;99.90
15239;DHT22;7722;53.274;9.500;2023-02-28T03:43:29;-1.70;99.90
15239;DHT22;7722;53.274;9.500;2023-02-28T03:45:57;-1.80;99.90
15239;DHT22;7722;53.274;9.500;2023-02-28T03:48:32;-1.80;99.90
15239;DHT22;7722;53.274;9.500;2023-02-28T03:51:03;-1.80;99.90
15239;DHT22;7722;53.274;9.500;2023-02-28T03:53:34;-1.90;99.90
15239;DHT22;7722;53.274;9.500;2023-02-28T03:56:07;-1.90;99.90
15239;DHT22;7722;53.274;9.500;2023-02-28T03:58:41;-1.90;99.90
15239;DHT22;7722;53.274;9.500;2023-02-28T04:01:12;-1.90;99.90
15239;DHT22;7722;53.274;9.500;2023-02-28T04:03:42;-1.80;99.90
15239;DHT22;7722;53.274;9.500;2023-02-28T04:06:16;-1.90;99.90
15239;DHT22;7722;53.274;9.500;2023-02-28T04:08:44;-2.00;99.90
15239;DHT22;7722;53.274;9.500;2023-02-28T04:11:18;-2.10;99.90
15239;DHT22;7722;53.274;9.500;2023-02-28T04:13:46;-2.10;99.90
15239;DHT22;7722;53.274;9.500;2023-02-28T04:16:13;-2.10;99.90
15239;DHT22;7722;53.274;9.500;2023-02-28T04:18:41;-2.00;99.90
15239;DHT22;7722;53.274;9.500;2023-02-28T04:21:09;-2.10;99.90
15239;DHT22;7722;53.274;9.500;2023-02-28T04:23:37;-2.10;99.90
15239;DHT22;7722;53.274;9.500;2023-02-28T04:26:04;-2.30;99.90
15239;DHT22;7722;53.274;9.500;2023-02-28T04:28:32;-2.20;99.90
15239;DHT22;7722;53.274;9.500;2023-02-28T04:31:02;-2.30;99.90
15239;DHT22;7722;53.274;9.500;2023-02-28T04:33:30;-2.20;99.90
15239;DHT22;7722;53.274;9.500;2023-02-28T04:36:05;-2.20;99.90
15239;DHT22;7722;53.274;9.500;2023-02-28T04:38:34;-2.20;99.90
15239;DHT22;7722;53.274;9.500;2023-02-28T04:41:04;-2.20;99.90
15239;DHT22;7722;53.274;9.500;2023-02-28T04:43:31;-2.30;99.90
15239;DHT22;7722;53.274;9.500;2023-02-28T04:46:02;-2.30;99.90
15239;DHT22;7722;53.274;9.500;2023-02-28T04:48:30;-2.40;99.90
15239;DHT22;7722;53.274;9.500;2023-02-28T04:51:00;-2.30;99.90
15239;DHT22;7722;53.274;9.500;2023-02-28T04:53:28;-2.40;99.90
15239;DHT22;7722;53.274;9.500;2023-02-28T04:55:55;-2.40;99.90
15239;DHT22;7722;53.274;9.500;2023-02-28T04:58:24;-2.40;99.90
15239;DHT22;7722;53.274;9.500;2023-02-28T05:00:51;-2.50;99.90
15239;DHT22;7722;53.274;9.500;2023-02-28T05:03:19;-2.50;99.90
15239;DHT22;7722;53.274;9.500;2023-02-28T05:05:47;-2.50;99.90
15239;DHT22;7722;53.274;9.500;2023-02-28T05:08:14;-2.50;99.90
15239;DHT22;7722;53.274;9.500;2023-02-28T05:10:41;-2.50;99.90
15239;DHT22;7722;53.274;9.500;2023-02-28T05:13:11;-2.50;99.90
15239;DHT22;7722;53.274;9.500;2023-02-28T05:15:39;-2.50;99.90
15239;DHT22;7722;53.274;9.500;2023-02-28T05:18:08;-2.50;99.90
15239;DHT22;7722;53.274;9.500;2023-02-28T05:20:35;-2.60;99.90
15239;DHT22;7722;53.274;9.500;2023-02-28T05:23:03;-2.60;99.90
15239;DHT22;7722;53.274;9.500;2023-02-28T05:25:30;-2.50;99.90
15239;DHT22;7722;53.274;9.500;2023-02-28T05:27:57;-2.60;99.90
15239;DHT22;7722;53.274;9.500;2023-02-28T05:30:24;-2.70;99.90
15239;DHT22;7722;53.274;9.500;2023-02-28T05:32:53;-2.80;99.90
15239;DHT22;7722;53.274;9.500;2023-02-28T05:35:19;-2.90;99.90
15239;DHT22;7722;53.274;9.500;2023-02-28T05:37:46;-2.90;99.90
15239;DHT22;7722;53.274;9.500;2023-02-28T05:40:14;-2.90;99.90
15239;DHT22;7722;53.274;9.500;2023-02-28T05:42:41;-2.90;99.90
15239;DHT22;7722;53.274;9.500;2023-02-28T05:45:09;-2.80;99.90
15239;DHT22;7722;53.274;9.500;2023-02-28T05:47:36;-2.70;99.90
15239;DHT22;7722;53.274;9.500;2023-02-28T05:50:06;-2.60;99.90
15239;DHT22;7722;53.274;9.500;2023-02-28T05:52:34;-2.70;99.90
15239;DHT22;7722;53.274;9.500;2023-02-28T05:55:01;-2.80;99.90
15239;DHT22;7722;53.274;9.500;2023-02-28T05:57:29;-2.90;99.90
15239;DHT22;7722;53.274;9.500;2023-02-28T05:59:56;-3.00;99.90
15239;DHT22;7722;53.274;9.500;2023-02-28T06:02:22;-3.00;99.90
15239;DHT22;7722;53.274;9.500;2023-02-28T06:04:49;-3.10;99.90
15239;DHT22;7722;53.274;9.500;2023-02-28T06:07:18;-3.10;99.90
15239;DHT22;7722;53.274;9.500;2023-02-28T06:09:45;-3.10;99.90
15239;DHT22;7722;53.274;9.500;2023-02-28T06:12:12;-3.20;99.90
15239;DHT22;7722;53.274;9.500;2023-02-28T06:14:39;-3.20;99.90
15239;DHT22;7722;53.274;9.500;2023-02-28T06:17:06;-3.20;99.90
15239;DHT22;7722;53.274;9.500;2023-02-28T06:19:33;-3.20;99.90
15239;DHT22;7722;53.274;9.500;2023-02-28T06:22:00;-3.10;99.90
15239;DHT22;7722;53.274;9.500;2023-02-28T06:24:28;-3.00;99.90
15239;DHT22;7722;53.274;9.500;2023-02-28T06:26:57;-3.10;99.90
15239;DHT22;7722;53.274;9.500;2023-02-28T06:29:24;-3.10;99.90
15239;DHT22;7722;53.274;9.500;2023-02-28T06:31:51;-3.10;99.90
15239;DHT22;7722;53.274;9.500;2023-02-28T06:34:18;-3.00;99.90
15239;DHT22;7722;53.274;9.500;2023-02-28T06:36:45;-3.00;99.90
15239;DHT22;7722;53.274;9.500;2023-02-28T06:39:12;-2.90;99.90
15239;DHT22;7722;53.274;9.500;2023-02-28T06:41:40;-2.80;99.90
15239;DHT22;7722;53.274;9.500;2023-02-28T06:44:13;-2.80;99.90
15239;DHT22;7722;53.274;9.500;2023-02-28T06:46:40;-2.90;99.90
15239;DHT22;7722;53.274;9.500;2023-02-28T06:49:08;-3.00;99.90
15239;DHT22;7722;53.274;9.500;2023-02-28T06:51:36;-2.90;99.90
15239;DHT22;7722;53.274;9.500;2023-02-28T06:54:04;-2.80;99.90
15239;DHT22;7722;53.274;9.500;2023-02-28T06:56:31;-2.90;99.90
15239;DHT22;7722;53.274;9.500;2023-02-28T06:59:00;-2.90;99.90
15239;DHT22;7722;53.274;9.500;2023-02-28T07:01:27;-2.90;99.90
15239;DHT22;7722;53.274;9.500;2023-02-28T07:03:54;-2.90;99.90
15239;DHT22;7722;53.274;9.500;2023-02-28T07:06:22;-2.90;99.90
15239;DHT22;7722;53.274;9.500;2023-02-28T07:08:50;-2.80;99.90
15239;DHT22;7722;53.274;9.500;2023-02-28T07:11:17;-2.80;99.90
15239;DHT22;7722;53.274;9.500;2023-02-28T07:13:44;-2.70;99.90
15239;DHT22;7722;53.274;9.500;2023-02-28T07:16:14;-2.70;99.90
15239;DHT22;7722;53.274;9.500;2023-02-28T07:18:41;-2.70;99.90
15239;DHT22;7722;53.274;9.500;2023-02-28T07:21:09;-2.50;99.90
15239;DHT22;7722;53.274;9.500;2023-02-28T07:23:37;-2.50;99.90
15239;DHT22;7722;53.274;9.500;2023-02-28T07:26:05;-2.40;99.90
15239;DHT22;7722;53.274;9.500;2023-02-28T07:28:32;-2.30;99.90
15239;DHT22;7722;53.274;9.500;2023-02-28T07:31:03;-2.30;99.90
15239;DHT22;7722;53.274;9.500;2023-02-28T07:33:32;-2.20;99.90
15239;DHT22;7722;53.274;9.500;2023-02-28T07:36:01;-2.10;99.90
15239;DHT22;7722;53.274;9.500;2023-02-28T07:38:28;-2.10;99.90
15239;DHT22;7722;53.274;9.500;2023-02-28T07:40:55;-2.00;99.90
15239;DHT22;7722;53.274;9.500;2023-02-28T07:43:22;-1.90;99.90
15239;DHT22;7722;53.274;9.500;2023-02-28T07:45:49;-1.90;99.90
15239;DHT22;7722;53.274;9.500;2023-02-28T07:48:16;-1.80;99.90
15239;DHT22;7722;53.274;9.500;2023-02-28T07:50:44;-1.70;99.90
15239;DHT22;7722;53.274;9.500;2023-02-28T07:53:18;-1.50;99.90
15239;DHT22;7722;53.274;9.500;2023-02-28T07:55:45;-1.40;99.90
15239;DHT22;7722;53.274;9.500;2023-02-28T07:58:12;-1.30;99.90
15239;DHT22;7722;53.274;9.500;2023-02-28T08:00:39;-1.30;99.90
15239;DHT22;7722;53.274;9.500;2023-02-28T08:03:06;-1.10;99.90
15239;DHT22;7722;53.274;9.500;2023-02-28T08:05:33;-1.00;99.90
15239;DHT22;7722;53.274;9.500;2023-02-28T08:08:01;-0.90;99.90
15239;DHT22;7722;53.274;9.500;2023-02-28T08:10:28;-0.70;99.90
15239;DHT22;7722;53.274;9.500;2023-02-28T08:12:55;-0.60;99.90
15239;DHT22;7722;53.274;9.500;2023-02-28T08:15:22;-0.60;99.90
15239;DHT22;7722;53.274;9.500;2023-02-28T08:17:49;-0.40;99.90
15239;DHT22;7722;53.274;9.500;2023-02-28T08:20:16;-0.30;99.90
15239;DHT22;7722;53.274;9.500;2023-02-28T08:22:43;-0.10;99.90
15239;DHT22;7722;53.274;9.500;2023-02-28T08:25:11;0.10;99.90
15239;DHT22;7722;53.274;9.500;2023-02-28T08:27:38;0.30;99.90
15239;DHT22;7722;53.274;9.500;2023-02-28T08:30:06;0.50;99.90
15239;DHT22;7722;53.274;9.500;2023-02-28T08:32:34;0.60;99.90
15239;DHT22;7722;53.274;9.500;2023-02-28T08:35:01;0.80;99.90
15239;DHT22;7722;53.274;9.500;2023-02-28T08:37:28;1.00;99.90
15239;DHT22;7722;53.274;9.500;2023-02-28T08:39:55;1.20;99.90
15239;DHT22;7722;53.274;9.500;2023-02-28T08:42:24;1.40;99.90
15239;DHT22;7722;53.274;9.500;2023-02-28T08:44:51;1.50;99.90
15239;DHT22;7722;53.274;9.500;2023-02-28T08:47:18;1.70;99.90
15239;DHT22;7722;53.274;9.500;2023-02-28T08:49:45;1.80;99.90
15239;DHT22;7722;53.274;9.500;2023-02-28T08:52:13;2.00;99.90
15239;DHT22;7722;53.274;9.500;2023-02-28T08:54:40;2.20;99.90
15239;DHT22;7722;53.274;9.500;2023-02-28T08:57:07;2.40;99.90
15239;DHT22;7722;53.274;9.500;2023-02-28T08:59:35;2.50;99.90
15239;DHT22;7722;53.274;9.500;2023-02-28T09:02:02;2.70;99.90
15239;DHT22;7722;53.274;9.500;2023-02-28T09:04:29;2.80;99.90
15239;DHT22;7722;53.274;9.500;2023-02-28T09:06:57;2.80;99.90
15239;DHT22;7722;53.274;9.500;2023-02-28T09:09:24;3.00;99.90
15239;DHT22;7722;53.274;9.500;2023-02-28T09:11:51;3.20;99.90
15239;DHT22;7722;53.274;9.500;2023-02-28T09:14:17;3.30;99.90
15239;DHT22;7722;53.274;9.500;2023-02-28T09:16:46;3.50;99.90
15239;DHT22;7722;53.274;9.500;2023-02-28T09:19:13;3.60;99.90
15239;DHT22;7722;53.274;9.500;2023-02-28T09:21:40;3.80;99.90
15239;DHT22;7722;53.274;9.500;2023-02-28T09:24:08;4.00;99.90
15239;DHT22;7722;53.274;9.500;2023-02-28T09:26:37;4.10;99.90
15239;DHT22;7722;53.274;9.500;2023-02-28T09:29:04;4.10;99.90
15239;DHT22;7722;53.274;9.500;2023-02-28T09:31:32;4.30;99.90
15239;DHT22;7722;53.274;9.500;2023-02-28T09:34:00;4.50;99.90
15239;DHT22;7722;53.274;9.500;2023-02-28T09:36:27;4.50;99.90
15239;DHT22;7722;53.274;9.500;2023-02-28T09:38:55;4.60;99.90
15239;DHT22;7722;53.274;9.500;2023-02-28T09:41:24;4.60;99.90
15239;DHT22;7722;53.274;9.500;2023-02-28T09:43:55;4.80;99.90
15239;DHT22;7722;53.274;9.500;2023-02-28T09:46:29;4.90;99.90
15239;DHT22;7722;53.274;9.500;2023-02-28T09:49:01;5.10;99.90
15239;DHT22;7722;53.274;9.500;2023-02-28T09:51:36;5.30;99.50
15239;DHT22;7722;53.274;9.500;2023-02-28T09:54:10;5.40;98.30
15239;DHT22;7722;53.274;9.500;2023-02-28T09:56:43;5.50;97.50
15239;DHT22;7722;53.274;9.500;2023-02-28T09:59:17;5.60;97.00
15239;DHT22;7722;53.274;9.500;2023-02-28T10:01:54;5.60;95.90
15239;DHT22;7722;53.274;9.500;2023-02-28T10:04:41;5.80;96.40
15239;DHT22;7722;53.274;9.500;2023-02-28T10:07:20;6.00;96.00
15239;DHT22;7722;53.274;9.500;2023-02-28T10:09:52;6.00;95.10
15239;DHT22;7722;53.274;9.500;2023-02-28T10:12:20;6.10;96.40
15239;DHT22;7722;53.274;9.500;2023-02-28T10:14:50;6.10;95.70
15239;DHT22;7722;53.274;9.500;2023-02-28T10:17:20;6.00;94.00
15239;DHT22;7722;53.274;9.500;2023-02-28T10:19:58;6.20;95.00
15239;DHT22;7722;53.274;9.500;2023-02-28T10:22:31;6.00;93.00
15239;DHT22;7722;53.274;9.500;2023-02-28T10:25:01;5.90;93.60
15239;DHT22;7722;53.274;9.500;2023-02-28T10:27:30;5.90;92.80
15239;DHT22;7722;53.274;9.500;2023-02-28T10:30:00;5.80;93.20
15239;DHT22;7722;53.274;9.500;2023-02-28T10:32:29;6.00;95.60
15239;DHT22;7722;53.274;9.500;2023-02-28T10:35:00;6.40;94.90
15239;DHT22;7722;53.274;9.500;2023-02-28T10:37:31;6.70;93.80
15239;DHT22;7722;53.274;9.500;2023-02-28T10:40:05;6.80;92.60
15239;DHT22;7722;53.274;9.500;2023-02-28T10:42:32;7.10;93.00
15239;DHT22;7722;53.274;9.500;2023-02-28T10:45:06;7.10;92.70
15239;DHT22;7722;53.274;9.500;2023-02-28T10:47:34;7.10;93.00
15239;DHT22;7722;53.274;9.500;2023-02-28T10:50:27;7.10;93.60
15239;DHT22;7722;53.274;9.500;2023-02-28T10:52:55;7.20;91.40
15239;DHT22;7722;53.274;9.500;2023-02-28T10:55:31;7.40;91.50
15239;DHT22;7722;53.274;9.500;2023-02-28T10:57:58;7.60;91.80
15239;DHT22;7722;53.274;9.500;2023-02-28T11:00:32;7.60;91.70
15239;DHT22;7722;53.274;9.500;2023-02-28T11:02:59;7.60;91.70
15239;DHT22;7722;53.274;9.500;2023-02-28T11:05:30;7.70;91.90
15239;DHT22;7722;53.274;9.500;2023-02-28T11:08:04;8.00;90.80
15239;DHT22;7722;53.274;9.500;2023-02-28T11:10:32;7.90;90.50
15239;DHT22;7722;53.274;9.500;2023-02-28T11:13:01;8.00;90.40
15239;DHT22;7722;53.274;9.500;2023-02-28T11:15:30;7.90;92.70
15239;DHT22;7722;53.274;9.500;2023-02-28T11:18:00;8.30;90.60
15239;DHT22;7722;53.274;9.500;2023-02-28T11:20:31;8.30;89.30
15239;DHT22;7722;53.274;9.500;2023-02-28T11:23:00;7.70;89.60
15239;DHT22;7722;53.274;9.500;2023-02-28T11:25:30;8.10;90.30
15239;DHT22;7722;53.274;9.500;2023-02-28T11:27:59;8.50;90.90
15239;DHT22;7722;53.274;9.500;2023-02-28T11:30:35;8.50;89.10
15239;DHT22;7722;53.274;9.500;2023-02-28T11:33:22;8.50;89.90
15239;DHT22;7722;53.274;9.500;2023-02-28T11:35:51;8.80;87.80
15239;DHT22;7722;53.274;9.500;2023-02-28T11:38:19;8.50;86.40
15239;DHT22;7722;53.274;9.500;2023-02-28T11:40:53;8.90;85.10
15239;DHT22;7722;53.274;9.500;2023-02-28T11:43:33;8.90;85.00
15239;DHT22;7722;53.274;9.500;2023-02-28T11:46:11;9.20;83.30
15239;DHT22;7722;53.274;9.500;2023-02-28T11:48:47;9.20;83.40
15239;DHT22;7722;53.274;9.500;2023-02-28T11:51:22;9.10;83.30
15239;DHT22;7722;53.274;9.500;2023-02-28T11:54:32;9.30;80.20
15239;DHT22;7722;53.274;9.500;2023-02-28T11:57:15;9.10;85.90
15239;DHT22;7722;53.274;9.500;2023-02-28T11:59:54;8.50;85.10
15239;DHT22;7722;53.274;9.500;2023-02-28T12:02:29;8.50;83.30
15239;DHT22;7722;53.274;9.500;2023-02-28T12:05:10;8.60;83.00
15239;DHT22;7722;53.274;9.500;2023-02-28T12:07:47;9.00;84.60
15239;DHT22;7722;53.274;9.500;2023-02-28T12:10:21;9.00;84.40
15239;DHT22;7722;53.274;9.500;2023-02-28T12:13:01;9.00;83.60
15239;DHT22;7722;53.274;9.500;2023-02-28T12:18:53;8.60;80.20
15239;DHT22;7722;53.274;9.500;2023-02-28T12:21:33;8.40;83.30
15239;DHT22;7722;53.274;9.500;2023-02-28T12:24:22;8.30;82.90
15239;DHT22;7722;53.274;9.500;2023-02-28T12:26:52;8.20;81.50
15239;DHT22;7722;53.274;9.500;2023-02-28T12:29:23;8.30;83.80
15239;DHT22;7722;53.274;9.500;2023-02-28T12:31:54;8.40;84.20
15239;DHT22;7722;53.274;9.500;2023-02-28T12:34:27;9.20;83.00
15239;DHT22;7722;53.274;9.500;2023-02-28T12:36:56;8.90;80.50
15239;DHT22;7722;53.274;9.500;2023-02-28T12:39:29;8.40;82.80
15239;DHT22;7722;53.274;9.500;2023-02-28T12:42:00;8.40;85.70
15239;DHT22;7722;53.274;9.500;2023-02-28T12:44:32;8.60;82.50
15239;DHT22;7722;53.274;9.500;2023-02-28T12:47:04;8.70;80.80
15239;DHT22;7722;53.274;9.500;2023-02-28T12:49:34;8.70;82.60
15239;DHT22;7722;53.274;9.500;2023-02-28T12:52:05;8.60;80.80
15239;DHT22;7722;53.274;9.500;2023-02-28T12:54:42;8.50;82.90
15239;DHT22;7722;53.274;9.500;2023-02-28T12:57:15;9.50;80.60
15239;DHT22;7722;53.274;9.500;2023-02-28T12:59:48;10.50;77.60
15239;DHT22;7722;53.274;9.500;2023-02-28T13:09:04;9.90;77.60
15239;DHT22;7722;53.274;9.500;2023-02-28T13:11:39;9.30;77.90
15239;DHT22;7722;53.274;9.500;2023-02-28T13:14:20;9.60;78.80
15239;DHT22;7722;53.274;9.500;2023-02-28T13:16:55;9.70;80.00
15239;DHT22;7722;53.274;9.500;2023-02-28T13:19:24;9.20;81.20
15239;DHT22;7722;53.274;9.500;2023-02-28T13:21:52;9.00;79.50
15239;DHT22;7722;53.274;9.500;2023-02-28T13:27:31;11.00;76.70
15239;DHT22;7722;53.274;9.500;2023-02-28T13:29:59;11.70;71.80
15239;DHT22;7722;53.274;9.500;2023-02-28T13:32:35;11.00;73.60
15239;DHT22;7722;53.274;9.500;2023-02-28T13:38:15;10.60;72.60
15239;DHT22;7722;53.274;9.500;2023-02-28T13:40:42;10.10;74.60
15239;DHT22;7722;53.274;9.500;2023-02-28T13:43:11;9.40;75.20
15239;DHT22;7722;53.274;9.500;2023-02-28T13:45:37;9.60;76.10
15239;DHT22;7722;53.274;9.500;2023-02-28T13:48:16;9.50;76.90
15239;DHT22;7722;53.274;9.500;2023-02-28T13:50:44;9.60;75.70
15239;DHT22;7722;53.274;9.500;2023-02-28T13:56:32;10.40;73.40
15239;DHT22;7722;53.274;9.500;2023-02-28T13:59:13;10.80;70.90
15239;DHT22;7722;53.274;9.500;2023-02-28T14:01:50;11.20;70.60
15239;DHT22;7722;53.274;9.500;2023-02-28T14:04:54;11.20;70.90
15239;DHT22;7722;53.274;9.500;2023-02-28T14:07:26;11.30;72.80
15239;DHT22;7722;53.274;9.500;2023-02-28T14:09:58;12.30;66.40
15239;DHT22;7722;53.274;9.500;2023-02-28T14:13:00;13.70;66.50
15239;DHT22;7722;53.274;9.500;2023-02-28T14:15:41;14.00;64.50
15239;DHT22;7722;53.274;9.500;2023-02-28T14:18:20;12.90;64.90
15239;DHT22;7722;53.274;9.500;2023-02-28T14:20:49;12.00;65.10
15239;DHT22;7722;53.274;9.500;2023-02-28T14:23:33;11.80;64.50
15239;DHT22;7722;53.274;9.500;2023-02-28T14:26:06;12.10;67.60
15239;DHT22;7722;53.274;9.500;2023-02-28T14:28:53;12.80;65.50
15239;DHT22;7722;53.274;9.500;2023-02-28T14:31:25;12.30;63.60
15239;DHT22;7722;53.274;9.500;2023-02-28T14:34:05;12.40;63.90
15239;DHT22;7722;53.274;9.500;2023-02-28T14:36:41;13.00;63.50
15239;DHT22;7722;53.274;9.500;2023-02-28T14:39:13;12.80;62.70
15239;DHT22;7722;53.274;9.500;2023-02-28T14:41:42;12.50;65.80
15239;DHT22;7722;53.274;9.500;2023-02-28T14:44:18;13.20;61.50
15239;DHT22;7722;53.274;9.500;2023-02-28T14:46:49;11.80;60.20
15239;DHT22;7722;53.274;9.500;2023-02-28T14:49:27;11.40;61.90
15239;DHT22;7722;53.274;9.500;2023-02-28T14:52:03;11.60;60.10
15239;DHT22;7722;53.274;9.500;2023-02-28T14:54:32;10.50;60.10
15239;DHT22;7722;53.274;9.500;2023-02-28T14:56:59;10.70;61.40
15239;DHT22;7722;53.274;9.500;2023-02-28T14:59:29;10.70;63.30
15239;DHT22;7722;53.274;9.500;2023-02-28T15:02:19;11.10;62.60
15239;DHT22;7722;53.274;9.500;2023-02-28T15:04:54;10.70;63.50
15239;DHT22;7722;53.274;9.500;2023-02-28T15:07:21;11.20;66.00
15239;DHT22;7722;53.274;9.500;2023-02-28T15:10:10;10.40;64.50
15239;DHT22;7722;53.274;9.500;2023-02-28T15:12:39;10.10;64.60
15239;DHT22;7722;53.274;9.500;2023-02-28T15:15:14;10.90;63.70
15239;DHT22;7722;53.274;9.500;2023-02-28T15:17:45;10.70;65.20
15239;DHT22;7722;53.274;9.500;2023-02-28T15:20:14;10.20;63.80
15239;DHT22;7722;53.274;9.500;2023-02-28T15:22:43;9.70;67.80
15239;DHT22;7722;53.274;9.500;2023-02-28T15:25:15;9.20;70.60
15239;DHT22;7722;53.274;9.500;2023-02-28T15:27:45;8.50;71.40
15239;DHT22;7722;53.274;9.500;2023-02-28T15:30:17;8.20;74.30
15239;DHT22;7722;53.274;9.500;2023-02-28T15:33:02;8.10;75.00
15239;DHT22;7722;53.274;9.500;2023-02-28T15:35:31;8.30;77.40
15239;DHT22;7722;53.274;9.500;2023-02-28T15:38:01;8.10;76.70
15239;DHT22;7722;53.274;9.500;2023-02-28T15:40:30;8.10;77.80
15239;DHT22;7722;53.274;9.500;2023-02-28T15:42:59;8.00;77.80
15239;DHT22;7722;53.274;9.500;2023-02-28T15:45:29;7.70;77.60
15239;DHT22;7722;53.274;9.500;2023-02-28T15:48:02;7.30;77.90
15239;DHT22;7722;53.274;9.500;2023-02-28T15:50:29;7.00;79.30
15239;DHT22;7722;53.274;9.500;2023-02-28T15:52:56;6.70;79.80
15239;DHT22;7722;53.274;9.500;2023-02-28T15:55:26;6.60;81.10
15239;DHT22;7722;53.274;9.500;2023-02-28T15:57:56;6.50;81.60
15239;DHT22;7722;53.274;9.500;2023-02-28T16:00:27;6.40;82.60
15239;DHT22;7722;53.274;9.500;2023-02-28T16:02:54;6.20;81.50
15239;DHT22;7722;53.274;9.500;2023-02-28T16:05:25;6.10;83.80
15239;DHT22;7722;53.274;9.500;2023-02-28T16:07:58;6.00;85.40
15239;DHT22;7722;53.274;9.500;2023-02-28T16:10:26;6.00;86.20
15239;DHT22;7722;53.274;9.500;2023-02-28T16:12:54;5.90;86.60
15239;DHT22;7722;53.274;9.500;2023-02-28T16:15:23;5.90;88.40
15239;DHT22;7722;53.274;9.500;2023-02-28T16:17:50;5.80;88.60
15239;DHT22;7722;53.274;9.500;2023-02-28T16:20:19;5.80;89.40
15239;DHT22;7722;53.274;9.500;2023-02-28T16:22:48;5.80;89.10
15239;DHT22;7722;53.274;9.500;2023-02-28T16:25:17;5.70;87.60
15239;DHT22;7722;53.274;9.500;2023-02-28T16:27:47;5.60;87.30
15239;DHT22;7722;53.274;9.500;2023-02-28T16:30:19;5.50;87.30
15239;DHT22;7722;53.274;9.500;2023-02-28T16:32:47;5.50;87.20
15239;DHT22;7722;53.274;9.500;2023-02-28T16:35:14;5.40;87.60
15239;DHT22;7722;53.274;9.500;2023-02-28T16:37:41;5.20;88.10
15239;DHT22;7722;53.274;9.500;2023-02-28T16:40:14;5.10;89.00
15239;DHT22;7722;53.274;9.500;2023-02-28T16:42:42;5.00;89.40